Time;durP1;ratioP1;P1;durP2;ratioP2;P2;SDS_P1;SDS_P2;PMS_P1;PMS_P2;Temp;Humidity;BMP_temperature;BMP_pressure;BME280_temperature;BME280_humidity;BME280_pressure;Samples;Min_cycle;Max_cycle;Signal;HPM_P1;HPM_P2
2023/07/30 00:00:06;;;;;;;9.90;2.20;;;16.90;99.90;;;16.95;100.00;99851.66;5011752;28;20038;-76
2023/07/30 00:02:37;;;;;;;4.13;1.55;;;16.80;99.90;;;16.90;100.00;99854.44;5030305;28;20062;-76
2023/07/30 00:05:03;;;;;;;2.13;1.55;;;16.70;99.90;;;16.82;100.00;99846.72;5021465;28;20393;-76
2023/07/30 00:07:29;;;;;;;2.78;1.60;;;16.70;99.90;;;16.79;100.00;99848.13;5012043;28;20045;-78
2023/07/30 00:09:54;;;;;;;3.00;1.60;;;16.60;99.90;;;16.77;100.00;99850.31;5016333;28;20042;-76
2023/07/30 00:12:20;;;;;;;3.38;1.70;;;16.60;99.90;;;16.71;100.00;99843.19;5016797;28;20095;-75
2023/07/30 00:14:46;;;;;;;4.63;1.77;;;16.60;99.90;;;16.63;100.00;99828.03;5011285;28;20038;-75
2023/07/30 00:17:15;;;;;;;5.35;1.70;;;16.50;99.90;;;16.64;100.00;99829.69;5012859;28;20604;-76
2023/07/30 00:19:43;;;;;;;2.58;1.75;;;16.50;99.90;;;16.58;100.00;99825.31;5023936;28;20931;-76
2023/07/30 00:22:09;;;;;;;4.20;1.67;;;16.50;99.90;;;16.46;100.00;99809.06;5010706;28;20390;-76
2023/07/30 00:24:38;;;;;;;3.33;1.80;;;16.40;99.90;;;16.52;100.00;99816.22;5017115;28;20095;-76
2023/07/30 00:27:04;;;;;;;5.05;1.90;;;16.40;99.90;;;16.27;100.00;99780.44;5012114;28;20093;-75
2023/07/30 00:29:30;;;;;;;4.65;1.90;;;16.30;99.90;;;16.13;100.00;99770.00;5013135;28;20092;-75
2023/07/30 00:31:59;;;;;;;3.13;1.85;;;16.30;99.90;;;16.45;100.00;99815.69;5013036;28;20096;-76
2023/07/30 00:34:24;;;;;;;2.90;2.00;;;16.30;99.90;;;16.39;100.00;99808.50;5022595;28;20465;-76
2023/07/30 00:36:51;;;;;;;3.28;1.95;;;16.30;99.90;;;16.35;100.00;99801.91;5002862;28;20040;-76
2023/07/30 00:39:19;;;;;;;5.82;2.10;;;16.20;99.90;;;16.28;100.00;99798.63;5012664;28;20038;-76
2023/07/30 00:41:51;;;;;;;3.22;1.98;;;16.20;99.90;;;16.27;100.00;99799.72;5014643;28;20164;-75
2023/07/30 00:44:17;;;;;;;4.20;2.25;;;16.20;99.90;;;16.23;100.00;99785.69;5022943;28;20590;-76
2023/07/30 00:46:43;;;;;;;4.53;2.13;;;16.20;99.90;;;16.27;100.00;99800.53;5013331;28;20052;-76
2023/07/30 00:49:09;;;;;;;5.10;1.98;;;16.20;99.90;;;15.92;100.00;99741.66;5017108;28;20583;-76
2023/07/30 00:51:38;;;;;;;4.15;2.03;;;16.20;99.90;;;15.96;100.00;99746.34;5013632;28;20033;-75
2023/07/30 00:54:04;;;;;;;4.00;1.77;;;16.10;99.90;;;16.25;100.00;99788.97;5012420;28;20437;-76
2023/07/30 00:56:30;;;;;;;3.33;2.10;;;16.20;99.90;;;16.23;100.00;99781.00;5020526;28;20555;-76
2023/07/30 00:58:56;;;;;;;4.10;1.80;;;16.20;99.90;;;16.35;100.00;99797.25;5009996;28;20517;-76
2023/07/30 01:01:22;;;;;;;4.38;2.03;;;16.30;99.90;;;16.35;100.00;99793.66;5016635;28;20049;-75
2023/07/30 01:03:53;;;;;;;5.80;2.15;;;16.20;99.90;;;16.35;100.00;99785.38;5020189;28;20041;-75
2023/07/30 01:06:20;;;;;;;4.15;2.38;;;16.30;99.90;;;16.29;100.00;99787.31;5015957;28;20048;-76
2023/07/30 01:08:46;;;;;;;4.47;2.13;;;16.20;99.90;;;16.34;100.00;99795.59;5012292;28;20041;-76
2023/07/30 01:11:14;;;;;;;4.57;2.22;;;16.20;99.90;;;16.43;100.00;99789.53;5011696;28;20045;-76
2023/07/30 01:13:42;;;;;;;4.85;2.78;;;16.30;99.90;;;16.48;100.00;99787.59;5022448;28;20041;-75
2023/07/30 01:16:08;;;;;;;;;;;16.40;99.90;;;16.51;100.00;99789.78;5020650;28;20049;-74
2023/07/30 01:18:34;;;;;;;4.60;2.40;;;16.40;99.90;;;16.53;100.00;99784.81;5022971;28;19916;-75
2023/07/30 01:21:00;;;;;;;3.70;2.85;;;16.50;99.90;;;16.61;100.00;99790.88;5020550;28;20088;-76
2023/07/30 01:23:26;;;;;;;5.35;2.72;;;16.50;99.90;;;16.56;100.00;99769.66;5021067;28;20033;-76
2023/07/30 01:26:12;;;;;;;5.28;3.00;;;16.60;99.90;;;16.73;100.00;99801.59;5018668;28;20080;-76
2023/07/30 01:28:48;;;;;;;4.93;2.92;;;16.60;99.90;;;16.66;100.00;99802.69;5006974;28;20030;-77
2023/07/30 01:31:17;;;;;;;4.63;3.17;;;16.60;99.90;;;16.76;100.00;99821.13;5019614;28;20069;-76
2023/07/30 01:33:51;;;;;;;6.28;2.92;;;16.60;99.90;;;16.78;100.00;99824.44;5011669;28;20034;-77
2023/07/30 01:36:19;;;;;;;5.93;3.20;;;16.60;99.90;;;16.79;100.00;99820.56;5020822;28;20045;-77
2023/07/30 01:38:47;;;;;;;5.53;3.28;;;16.60;99.90;;;16.78;100.00;99829.09;5010424;28;20049;-76
2023/07/30 01:41:13;;;;;;;;;;;16.60;99.90;;;16.74;100.00;99822.50;5014705;28;20026;-77
2023/07/30 01:43:39;;;;;;;6.15;3.40;;;16.60;99.90;;;16.70;100.00;99822.22;5028047;28;20270;-76
2023/07/30 01:46:05;;;;;;;5.38;3.75;;;16.60;99.90;;;16.71;100.00;99814.81;4997879;28;20184;-77
2023/07/30 01:48:31;;;;;;;8.93;3.90;;;16.60;99.90;;;16.73;100.00;99815.34;4999591;28;20030;-77
2023/07/30 01:50:57;;;;;;;6.55;3.65;;;16.60;99.90;;;16.74;100.00;99815.09;5015552;28;20064;-77
2023/07/30 01:53:23;;;;;;;5.93;3.67;;;16.60;99.90;;;16.75;100.00;99833.25;5033357;28;20040;-77
2023/07/30 01:55:48;;;;;;;6.68;3.83;;;16.60;99.90;;;16.65;100.00;99847.03;4993469;28;20029;-77
2023/07/30 01:58:14;;;;;;;7.72;4.20;;;16.50;99.90;;;16.68;100.00;99852.81;5016253;28;20034;-76
2023/07/30 02:00:41;;;;;;;6.40;3.90;;;16.50;99.90;;;16.67;100.00;99850.31;5015523;28;20042;-77
2023/07/30 02:03:07;;;;;;;5.55;3.58;;;16.50;99.90;;;16.57;100.00;99831.06;5011544;28;20066;-75
2023/07/30 02:05:33;;;;;;;4.68;3.83;;;16.40;99.90;;;16.58;100.00;99841.81;5016032;28;20477;-76
2023/07/30 02:07:59;;;;;;;6.32;3.97;;;16.30;99.90;;;16.44;100.00;99830.50;5022697;28;20058;-76
2023/07/30 02:10:25;;;;;;;6.43;3.97;;;16.30;99.90;;;16.36;100.00;99834.66;5018936;28;20045;-76
2023/07/30 02:12:51;;;;;;;5.90;4.32;;;16.20;99.90;;;16.23;100.00;99821.44;5010264;28;20205;-76
2023/07/30 02:15:17;;;;;;;7.55;3.80;;;16.00;99.90;;;16.18;100.00;99815.94;5022729;28;20385;-77
2023/07/30 02:17:42;;;;;;;6.93;4.03;;;15.90;99.90;;;16.08;100.00;99812.09;5015767;28;20053;-76
2023/07/30 02:20:09;;;;;;;9.30;4.30;;;15.80;99.90;;;15.96;100.00;99790.34;5015421;28;20451;-77
2023/07/30 02:22:35;;;;;;;5.70;4.38;;;15.80;99.90;;;15.90;100.00;99785.94;5021656;28;20087;-77
2023/07/30 02:25:01;;;;;;;7.47;4.10;;;15.70;99.90;;;15.88;100.00;99774.38;5019492;28;20076;-76
2023/07/30 02:27:27;;;;;;;7.38;4.20;;;15.70;99.90;;;15.82;100.00;99769.94;5021499;28;20112;-74
2023/07/30 02:29:52;;;;;;;6.35;4.57;;;15.60;99.90;;;15.78;100.00;99755.09;5020237;28;20436;-76
2023/07/30 02:32:18;;;;;;;8.00;4.50;;;15.60;99.90;;;15.73;100.00;99752.34;5014470;28;20064;-77
2023/07/30 02:34:44;;;;;;;6.63;4.43;;;15.50;99.90;;;15.71;100.00;99754.56;5019538;28;20037;-76
2023/07/30 02:37:09;;;;;;;11.90;4.53;;;15.50;99.90;;;15.66;100.00;99758.94;5023066;28;20133;-77
2023/07/30 02:39:35;;;;;;;6.82;4.60;;;15.40;99.90;;;15.59;100.00;99744.63;5015505;28;20049;-76
2023/07/30 02:42:01;;;;;;;7.40;4.75;;;15.40;99.90;;;15.57;100.00;99737.75;5010297;28;20034;-76
2023/07/30 02:44:26;;;;;;;7.63;4.55;;;15.40;99.90;;;15.51;100.00;99742.41;5012434;28;20502;-77
2023/07/30 02:46:52;;;;;;;7.68;4.65;;;15.30;99.90;;;15.44;100.00;99745.41;5013315;28;20026;-76
2023/07/30 02:49:18;;;;;;;8.45;4.95;;;15.30;99.90;;;15.36;100.00;99743.22;5019815;28;20076;-76
2023/07/30 02:51:48;;;;;;;7.40;4.75;;;15.10;99.90;;;15.30;100.00;99736.88;5012451;28;20052;-76
2023/07/30 02:54:16;;;;;;;9.27;4.68;;;15.00;99.90;;;15.20;100.00;99743.16;5016081;28;20515;-77
2023/07/30 02:56:43;;;;;;;;;;;14.90;99.90;;;15.14;100.00;99751.66;5019164;28;20037;-77
2023/07/30 02:59:08;;;;;;;7.95;4.60;;;14.80;99.90;;;14.97;100.00;99722.47;5015991;28;19917;-77
2023/07/30 03:01:34;;;;;;;6.88;4.82;;;14.80;99.90;;;15.03;100.00;99742.56;5018893;28;20528;-76
2023/07/30 03:04:00;;;;;;;10.00;4.47;;;14.70;99.90;;;14.98;100.00;99743.34;5009968;28;20042;-76
2023/07/30 03:06:25;;;;;;;6.43;4.78;;;14.70;99.90;;;14.98;100.00;99740.63;5016226;28;20056;-76
2023/07/30 03:08:52;;;;;;;7.75;4.57;;;14.70;99.90;;;14.95;100.00;99733.72;4996170;28;20089;-76
2023/07/30 03:11:17;;;;;;;7.68;4.53;;;14.60;99.90;;;14.87;100.00;99736.19;5011439;28;20852;-76
2023/07/30 03:13:43;;;;;;;7.80;4.50;;;14.50;99.90;;;14.76;100.00;99736.13;5011866;28;20440;-76
2023/07/30 03:16:09;;;;;;;7.10;5.07;;;14.40;99.90;;;14.74;100.00;99741.06;5016919;28;20682;-76
2023/07/30 03:18:35;;;;;;;9.30;5.00;;;14.40;99.90;;;14.65;100.00;99737.94;5019264;28;20038;-76
2023/07/30 03:21:01;;;;;;;6.30;4.50;;;14.40;99.90;;;14.59;100.00;99747.25;5002521;28;20053;-76
2023/07/30 03:23:27;;;;;;;6.80;4.32;;;14.30;99.90;;;14.50;100.00;99744.19;5016112;28;20048;-76
2023/07/30 03:25:53;;;;;;;6.65;4.63;;;14.20;99.90;;;14.47;100.00;99728.25;5020642;28;20046;-76
2023/07/30 03:28:19;;;;;;;9.77;5.13;;;14.20;99.90;;;14.47;100.00;99716.47;5017282;28;20450;-76
2023/07/30 03:30:44;;;;;;;7.80;4.50;;;14.20;99.90;;;14.48;100.00;99716.19;5017810;28;20033;-76
2023/07/30 03:33:10;;;;;;;8.82;4.80;;;14.20;99.90;;;14.48;100.00;99715.38;5017961;28;20410;-76
2023/07/30 03:35:36;;;;;;;9.95;4.88;;;14.20;99.90;;;14.46;100.00;99704.66;5020029;28;20045;-76
2023/07/30 03:38:02;;;;;;;13.10;4.75;;;14.20;99.90;;;14.47;100.00;99706.28;5016415;28;20029;-75
2023/07/30 03:40:29;;;;;;;9.23;4.95;;;14.20;99.90;;;14.36;100.00;99707.34;5018497;28;20083;-75
2023/07/30 03:42:55;;;;;;;11.68;5.45;;;14.10;99.90;;;14.43;100.00;99710.66;5031346;28;20618;-75
2023/07/30 03:45:21;;;;;;;9.00;4.78;;;14.10;99.90;;;14.34;100.00;99723.25;5035903;28;20121;-76
2023/07/30 03:47:46;;;;;;;12.00;4.68;;;14.00;99.90;;;14.41;100.00;99723.00;5026614;28;20502;-75
2023/07/30 03:50:12;;;;;;;8.80;4.70;;;14.10;99.90;;;14.44;100.00;99728.78;5022553;28;20041;-76
2023/07/30 03:52:38;;;;;;;9.18;4.82;;;14.10;99.90;;;14.40;100.00;99730.41;5021224;28;20033;-75
2023/07/30 03:55:04;;;;;;;10.73;4.65;;;14.10;99.90;;;14.32;100.00;99722.66;5018056;28;20508;-76
2023/07/30 03:57:30;;;;;;;10.95;4.90;;;14.00;99.90;;;14.43;100.00;99737.25;5022837;28;20034;-76
2023/07/30 03:59:55;;;;;;;10.20;4.43;;;14.00;99.90;;;14.42;100.00;99741.94;5009468;28;20052;-75
2023/07/30 04:02:21;;;;;;;8.80;4.38;;;14.00;99.90;;;14.44;100.00;99750.72;5009584;28;20037;-76
2023/07/30 04:04:49;;;;;;;8.40;4.38;;;14.00;99.90;;;14.44;100.00;99747.16;5011277;28;20375;-76
2023/07/30 04:07:15;;;;;;;;;;;14.00;99.90;;;14.48;100.00;99760.09;5012256;28;20041;-75
2023/07/30 04:09:41;;;;;;;10.07;4.30;;;14.10;99.90;;;14.52;100.00;99755.72;5018332;28;20004;-76
2023/07/30 04:12:07;;;;;;;11.23;4.65;;;14.10;99.90;;;14.58;100.00;99759.31;5025792;28;20183;-76
2023/07/30 04:14:33;;;;;;;9.82;3.83;;;14.20;99.90;;;14.64;100.00;99780.22;5032672;28;20065;-76
2023/07/30 04:16:59;;;;;;;10.63;4.40;;;14.20;99.90;;;14.65;100.00;99775.56;5020834;28;20401;-75
2023/07/30 04:19:25;;;;;;;5.80;3.70;;;14.30;99.90;;;14.71;100.00;99781.94;5001720;28;20084;-76
2023/07/30 04:21:51;;;;;;;8.50;4.10;;;14.30;99.90;;;14.70;100.00;99783.81;5015923;28;20033;-76
2023/07/30 04:24:17;;;;;;;7.93;4.45;;;14.30;99.90;;;14.74;100.00;99801.44;5020209;28;20037;-76
2023/07/30 04:26:43;;;;;;;9.50;4.03;;;14.40;99.90;;;14.81;100.00;99807.53;5020327;28;20026;-76
2023/07/30 04:29:10;;;;;;;9.30;4.10;;;14.40;99.90;;;14.87;100.00;99824.84;5021489;28;20474;-76
2023/07/30 04:31:36;;;;;;;6.63;4.07;;;14.50;99.90;;;14.88;100.00;99821.03;5020009;28;20065;-75
2023/07/30 04:34:02;;;;;;;7.50;3.65;;;14.60;99.90;;;14.98;100.00;99838.63;5015230;28;20536;-76
2023/07/30 04:36:27;;;;;;;10.85;3.88;;;14.70;99.90;;;15.05;100.00;99844.75;5024250;28;20087;-76
2023/07/30 04:38:54;;;;;;;12.50;4.10;;;14.70;99.90;;;15.13;100.00;99860.72;5014056;28;20053;-75
2023/07/30 04:41:24;;;;;;;7.57;3.75;;;14.90;99.90;;;15.20;100.00;99877.78;5025775;28;20476;-75
2023/07/30 04:43:56;;;;;;;8.52;3.50;;;14.90;99.90;;;15.30;100.00;99888.00;5033976;28;20033;-75
2023/07/30 04:46:21;;;;;;;6.65;3.28;;;15.00;99.90;;;15.38;100.00;99903.16;5020996;28;20034;-76
2023/07/30 04:48:47;;;;;;;8.07;3.72;;;15.10;99.90;;;15.48;100.00;99908.69;5018474;28;20501;-76
2023/07/30 04:51:16;;;;;;;10.05;3.28;;;15.20;99.90;;;15.60;100.00;99907.66;5030954;28;20474;-76
2023/07/30 04:53:42;;;;;;;9.45;3.15;;;15.30;99.90;;;15.74;100.00;99928.03;5005286;28;20033;-75
2023/07/30 04:56:07;;;;;;;7.55;3.45;;;15.50;99.90;;;15.86;100.00;99941.56;5019902;28;20040;-75
2023/07/30 04:58:33;;;;;;;6.43;3.30;;;15.60;99.90;;;15.98;100.00;99944.09;5017555;28;20121;-75
2023/07/30 05:00:59;;;;;;;9.35;3.42;;;15.80;99.90;;;16.16;100.00;99953.78;5012265;28;20041;-75
2023/07/30 05:03:25;;;;;;;8.02;3.67;;;15.90;99.90;;;16.38;100.00;99974.75;5014779;28;20026;-75
2023/07/30 05:05:50;;;;;;;6.90;3.30;;;16.10;99.90;;;16.54;100.00;99979.19;5015181;28;20359;-75
2023/07/30 05:08:16;;;;;;;8.52;3.70;;;16.30;99.90;;;16.58;100.00;99964.88;5019043;28;20041;-75
2023/07/30 05:10:42;;;;;;;8.95;3.78;;;16.50;99.90;;;16.82;100.00;99995.47;5021306;28;20104;-75
2023/07/30 05:13:08;;;;;;;10.88;4.13;;;16.70;99.90;;;16.96;100.00;99995.72;5027189;28;20042;-75
2023/07/30 05:15:34;;;;;;;10.90;4.22;;;16.80;99.90;;;16.97;100.00;99997.38;5019995;28;20128;-75
2023/07/30 05:18:00;;;;;;;9.98;5.07;;;16.90;99.90;;;16.98;100.00;99999.09;5014107;28;20041;-74
2023/07/30 05:20:25;;;;;;;9.00;4.68;;;16.90;99.90;;;17.11;100.00;100005.97;5020348;28;20038;-74
2023/07/30 05:22:51;;;;;;;8.63;4.82;;;17.00;99.90;;;17.19;100.00;100013.69;5014661;28;20046;-75
2023/07/30 05:25:17;;;;;;;11.68;5.13;;;17.10;99.90;;;17.23;100.00;100024.97;5014945;28;20045;-75
2023/07/30 05:27:43;;;;;;;9.60;4.85;;;17.10;99.90;;;17.19;100.00;100023.88;5016543;28;20087;-74
2023/07/30 05:30:09;;;;;;;9.88;5.20;;;17.10;99.90;;;17.16;100.00;100016.16;5017489;28;20375;-75
2023/07/30 05:32:35;;;;;;;14.85;4.93;;;17.10;99.90;;;17.13;100.00;100011.19;5018616;28;20029;-75
2023/07/30 05:35:00;;;;;;;12.18;5.05;;;17.10;99.90;;;16.95;100.00;99997.69;5013845;28;20043;-76
2023/07/30 05:37:26;;;;;;;13.70;5.78;;;17.00;99.90;;;17.02;100.00;100013.97;5016046;28;20505;-76
2023/07/30 05:39:52;;;;;;;10.73;6.35;;;16.90;99.90;;;16.92;100.00;100000.16;5024645;28;20034;-77
2023/07/30 05:42:17;;;;;;;12.52;6.78;;;16.90;99.90;;;16.98;100.00;100004.59;5014923;28;20088;-76
2023/07/30 05:44:43;;;;;;;13.20;6.88;;;16.90;99.90;;;17.02;100.00;100004.88;5019385;28;20038;-76
2023/07/30 05:47:09;;;;;;;12.60;8.27;;;16.90;99.90;;;17.02;100.00;99991.09;5030153;28;20041;-76
2023/07/30 05:49:34;;;;;;;11.43;8.27;;;17.00;99.90;;;17.09;100.00;100000.75;5030547;28;20040;-75
2023/07/30 05:52:00;;;;;;;14.32;8.45;;;17.00;99.90;;;17.27;100.00;99998.53;5014496;28;20037;-76
2023/07/30 05:54:26;;;;;;;13.38;8.18;;;17.20;99.90;;;17.36;100.00;100013.38;5019668;28;20057;-75
2023/07/30 05:56:51;;;;;;;15.23;8.27;;;17.30;99.90;;;17.44;100.00;100023.03;5028506;28;20042;-76
2023/07/30 05:59:17;;;;;;;11.70;8.00;;;17.40;99.90;;;17.61;100.00;100036.50;5013680;28;20084;-75
2023/07/30 06:01:43;;;;;;;12.00;7.35;;;17.50;99.90;;;17.64;100.00;100044.22;5017481;28;20033;-74
2023/07/30 06:04:09;;;;;;;12.68;8.20;;;17.60;99.90;;;17.78;100.00;100054.69;5023036;28;20497;-75
2023/07/30 06:06:34;;;;;;;11.88;7.30;;;17.70;99.90;;;17.67;100.00;100054.69;5019358;28;20488;-76
2023/07/30 06:09:00;;;;;;;12.50;7.25;;;17.70;99.90;;;17.66;100.00;100063.25;5014646;28;20938;-76
2023/07/30 06:11:26;;;;;;;14.80;7.38;;;17.70;99.90;;;17.69;100.00;100062.69;5013283;28;20038;-77
2023/07/30 06:13:52;;;;;;;11.48;7.22;;;17.70;99.90;;;17.76;100.00;100071.50;5019830;28;20029;-76
2023/07/30 06:16:20;;;;;;;10.95;7.20;;;17.80;99.90;;;17.77;100.00;100075.91;5020571;28;20492;-76
2023/07/30 06:18:45;;;;;;;;;;;17.80;99.90;;;17.60;100.00;100058.84;5022001;28;20042;-75
2023/07/30 06:21:11;;;;;;;10.85;6.95;;;17.80;99.90;;;17.85;100.00;100084.72;5021317;28;19921;-76
2023/07/30 06:23:37;;;;;;;10.95;6.80;;;17.90;99.90;;;17.88;100.00;100087.75;5020915;28;20088;-75
2023/07/30 06:26:03;;;;;;;20.75;6.90;;;18.00;99.90;;;17.97;100.00;100086.06;5017048;28;20034;-76
2023/07/30 06:28:28;;;;;;;9.02;6.35;;;18.00;99.90;;;18.07;100.00;100101.00;5015535;28;20029;-76
2023/07/30 06:30:54;;;;;;;12.70;6.05;;;18.10;99.90;;;18.13;100.00;100097.09;5019594;28;20056;-75
2023/07/30 06:33:20;;;;;;;10.38;5.82;;;18.10;99.90;;;18.33;100.00;100093.44;5013672;28;20046;-76
2023/07/30 06:35:45;;;;;;;8.38;5.32;;;18.30;99.90;;;18.42;100.00;100096.44;5014216;28;20053;-75
2023/07/30 06:38:11;;;;;;;10.88;5.63;;;18.40;99.90;;;18.45;100.00;100093.09;5019874;28;20037;-75
2023/07/30 06:40:37;;;;;;;13.13;6.90;;;18.50;99.90;;;18.52;100.00;100110.19;5014758;28;20042;-74
2023/07/30 06:43:02;;;;;;;12.32;4.65;;;18.50;99.90;;;18.61;100.00;100115.13;5014106;28;20486;-75
2023/07/30 06:45:28;;;;;;;9.13;4.20;;;18.60;99.90;;;18.52;100.00;100135.03;5012607;28;20041;-74
2023/07/30 06:47:54;;;;;;;7.53;4.15;;;18.60;99.90;;;18.64;100.00;100139.44;5012461;28;20045;-75
2023/07/30 06:50:20;;;;;;;7.15;4.30;;;18.80;99.90;;;18.77;100.00;100133.25;5019595;28;20053;-78
2023/07/30 06:52:45;;;;;;;10.50;4.28;;;18.90;99.90;;;18.86;100.00;100144.56;5018968;28;20029;-75
2023/07/30 06:55:11;;;;;;;10.05;4.00;;;19.00;99.90;;;19.01;100.00;100142.84;5018922;28;20026;-80
2023/07/30 06:57:37;;;;;;;12.10;4.07;;;19.10;99.90;;;18.94;100.00;100151.44;5019733;28;20394;-76
2023/07/30 07:00:04;;;;;;;9.30;3.58;;;19.20;99.90;;;18.88;100.00;100156.16;5019597;28;20431;-74
2023/07/30 07:02:30;;;;;;;8.82;3.45;;;19.10;99.90;;;19.05;100.00;100157.75;5012696;28;20037;-75
2023/07/30 07:04:57;;;;;;;10.02;3.45;;;19.20;99.90;;;19.20;100.00;100159.59;5017720;28;20041;-76
2023/07/30 07:07:23;;;;;;;10.95;3.60;;;19.30;99.90;;;19.32;100.00;100157.28;5017201;28;20048;-75
2023/07/30 07:09:48;;;;;;;7.45;2.63;;;19.50;99.90;;;19.31;100.00;100169.44;5016563;28;20045;-72
2023/07/30 07:12:14;;;;;;;6.43;2.90;;;19.50;99.90;;;19.51;100.00;100153.81;5018763;28;20551;-74
2023/07/30 07:14:40;;;;;;;7.50;3.05;;;19.70;99.90;;;19.67;100.00;100166.44;5016752;28;20041;-74
2023/07/30 07:17:06;;;;;;;7.60;2.83;;;19.90;99.90;;;19.92;100.00;100170.09;5012480;28;20052;-75
2023/07/30 07:19:36;;;;;;;6.03;2.55;;;20.00;99.90;;;20.06;100.00;100159.16;5019582;28;20033;-75
2023/07/30 07:22:04;;;;;;;5.60;2.38;;;20.20;99.90;;;19.96;100.00;100162.88;5020271;28;20076;-74
2023/07/30 07:24:30;;;;;;;5.90;2.17;;;20.20;99.90;;;19.98;100.00;100168.09;5020065;28;20455;-74
2023/07/30 07:26:57;;;;;;;7.50;2.28;;;20.20;99.90;;;20.18;100.00;100174.56;5023840;28;20101;-75
2023/07/30 07:29:22;;;;;;;8.60;2.10;;;20.30;99.90;;;20.30;100.00;100169.44;5024557;28;20061;-74
2023/07/30 07:31:48;;;;;;;6.05;1.80;;;20.40;99.90;;;20.31;100.00;100162.78;5026087;28;20131;-75
2023/07/30 07:34:14;;;;;;;3.75;1.77;;;20.50;99.90;;;20.51;100.00;100172.78;5021577;28;20095;-74
2023/07/30 07:36:40;;;;;;;4.13;1.90;;;20.70;99.90;;;20.11;100.00;100172.13;5021424;28;20041;-74
2023/07/30 07:39:06;;;;;;;6.95;2.00;;;20.40;99.90;;;20.06;100.00;100174.94;5021853;28;20274;-74
2023/07/30 07:41:32;;;;;;;6.85;2.00;;;20.30;99.90;;;19.98;100.00;100190.25;5020090;28;20041;-76
2023/07/30 07:43:57;;;;;;;5.70;2.00;;;20.20;99.90;;;19.99;100.00;100172.50;5023748;28;20033;-76
2023/07/30 07:46:24;;;;;;;6.90;1.80;;;20.10;99.90;;;19.86;100.00;100176.75;5021957;28;20477;-75
2023/07/30 07:48:50;;;;;;;6.55;2.10;;;20.10;99.90;;;19.83;100.00;100172.66;5018404;28;20567;-75
2023/07/30 07:51:15;;;;;;;6.45;2.00;;;20.10;99.90;;;20.10;100.00;100170.47;5023904;28;20030;-76
2023/07/30 07:53:41;;;;;;;5.85;1.90;;;20.20;99.90;;;20.02;100.00;100173.88;5021954;28;20037;-75
2023/07/30 07:56:07;;;;;;;5.65;1.80;;;20.30;99.90;;;20.12;100.00;100182.06;5020149;28;20489;-74
2023/07/30 07:58:33;;;;;;;6.10;1.98;;;20.30;99.90;;;20.26;100.00;100176.66;5019930;28;20041;-74
2023/07/30 08:00:59;;;;;;;6.85;2.17;;;20.50;99.90;;;20.03;100.00;100167.22;5013344;28;20065;-75
2023/07/30 08:03:26;;;;;;;6.82;2.03;;;20.40;99.90;;;20.22;100.00;100178.38;5000342;28;20129;-74
2023/07/30 08:05:52;;;;;;;8.15;2.03;;;20.50;99.90;;;20.17;100.00;100168.19;5016807;28;20030;-75
2023/07/30 08:08:18;;;;;;;4.82;1.58;;;20.60;99.90;;;20.43;100.00;100170.69;5012107;28;20034;-74
2023/07/30 08:10:46;;;;;;;5.57;1.73;;;20.70;99.90;;;20.67;100.00;100167.88;5025709;28;20573;-74
2023/07/30 08:13:13;;;;;;;5.63;1.75;;;20.90;99.90;;;20.88;100.00;100178.75;5017461;28;20045;-74
2023/07/30 08:15:39;;;;;;;5.25;1.70;;;21.00;99.90;;;20.75;100.00;100173.88;5020298;28;20041;-76
2023/07/30 08:18:05;;;;;;;4.25;1.80;;;21.00;99.90;;;21.10;100.00;100185.66;5018269;28;20041;-74
2023/07/30 08:20:31;;;;;;;6.03;1.88;;;;;;;21.17;100.00;100185.25;5012772;28;20048;-75
2023/07/30 08:22:57;;;;;;;5.88;1.90;;;21.20;99.90;;;21.16;100.00;100178.06;5014533;28;20034;-76
2023/07/30 08:25:22;;;;;;;5.35;1.63;;;21.50;99.90;;;21.24;100.00;100180.19;5014330;28;20089;-76
2023/07/30 08:27:48;;;;;;;5.88;1.70;;;21.50;99.90;;;21.25;100.00;100181.84;5014834;28;20402;-75
2023/07/30 08:30:14;;;;;;;7.53;1.75;;;21.50;99.90;;;21.41;100.00;100177.69;5018128;28;20113;-77
2023/07/30 08:32:41;;;;;;;5.57;1.80;;;21.70;99.40;;;21.44;100.00;100179.03;5019097;28;20037;-75
2023/07/30 08:35:08;;;;;;;5.82;1.73;;;21.80;99.00;;;21.61;100.00;100185.97;5011992;28;20042;-77
2023/07/30 08:37:33;;;;;;;5.13;1.90;;;21.80;99.30;;;21.77;100.00;100173.53;5018691;28;20120;-75
2023/07/30 08:39:59;;;;;;;4.18;1.55;;;21.90;99.90;;;21.68;100.00;100184.50;5023128;28;20036;-77
2023/07/30 08:42:25;;;;;;;7.03;2.03;;;22.00;99.70;;;22.09;100.00;100182.13;5013902;28;20038;-78
2023/07/30 08:44:51;;;;;;;5.20;2.00;;;;;;;22.57;100.00;100177.38;5013278;28;20042;-78
2023/07/30 08:47:17;;;;;;;5.88;2.08;;;;;;;22.57;100.00;100163.47;5012167;28;20053;-76
2023/07/30 08:49:43;;;;;;;5.07;2.08;;;22.30;99.90;;;22.30;100.00;100162.31;5019035;28;20037;-76
2023/07/30 08:52:10;;;;;;;6.88;2.00;;;;;;;22.07;100.00;100168.53;5018764;28;20053;-75
2023/07/30 08:54:39;;;;;;;6.45;2.13;;;22.70;96.60;;;22.12;100.00;100164.88;5021376;28;20042;-76
2023/07/30 08:57:06;;;;;;;5.68;2.08;;;22.40;97.50;;;21.97;100.00;100161.22;5021869;28;20045;-75
2023/07/30 08:59:41;;;;;;;7.47;2.25;;;22.40;97.40;;;22.25;100.00;100155.69;5021304;28;20497;-77
2023/07/30 09:02:19;;;;;;;5.63;2.03;;;22.50;97.50;;;22.57;100.00;100163.47;5017328;28;20172;-76
2023/07/30 09:04:53;;;;;;;7.78;2.22;;;22.80;96.50;;;22.45;98.98;100158.41;5022096;28;20038;-79
2023/07/30 09:07:18;;;;;;;4.55;2.10;;;22.80;95.10;;;22.70;100.00;100168.19;5020132;28;20029;-79
2023/07/30 09:09:45;;;;;;;7.40;2.35;;;22.90;97.70;;;22.74;98.53;100166.41;5016149;28;20053;-76
2023/07/30 09:12:15;;;;;;;8.82;2.42;;;;;;;23.28;97.34;100163.03;5019323;28;20044;-77
2023/07/30 09:14:44;;;;;;;5.28;2.08;;;;;;;23.12;95.05;100157.81;5021952;28;20116;-76
2023/07/30 09:17:16;;;;;;;9.35;2.30;;;;;;;22.86;96.62;100159.53;5015721;28;20041;-76
2023/07/30 09:19:42;;;;;;;5.57;2.28;;;;;;;23.11;97.23;100172.84;5021089;28;20042;-75
2023/07/30 09:22:08;;;;;;;8.18;2.67;;;;;;;23.20;97.73;100174.88;5018029;28;20049;-76
2023/07/30 09:24:34;;;;;;;8.60;2.35;;;;;;;23.16;98.33;100173.88;5020115;28;20049;-75
2023/07/30 09:27:04;;;;;;;7.00;2.53;;;;;;;23.01;100.00;100175.84;5014507;28;20049;-75
2023/07/30 09:29:30;;;;;;;11.20;2.88;;;;;;;22.84;100.00;100171.78;5036461;28;20034;-75
2023/07/30 09:31:56;;;;;;;6.72;2.70;;;;;;;23.16;100.00;100176.66;5009863;28;20040;-76
2023/07/30 09:34:24;;;;;;;7.97;2.95;;;;;;;23.36;97.26;100173.44;5014924;28;20049;-76
2023/07/30 09:36:56;;;;;;;8.30;2.70;;;;;;;22.99;95.42;100183.69;5015184;28;20038;-75
2023/07/30 09:39:26;;;;;;;8.38;2.95;;;23.00;95.50;;;22.57;97.74;100180.16;5027130;28;20494;-76
2023/07/30 09:41:59;;;;;;;5.50;2.72;;;;;;;23.21;94.75;100187.66;5035061;28;20029;-76
2023/07/30 09:44:31;;;;;;;7.90;2.80;;;;;;;23.38;93.13;100187.84;5021503;28;20068;-75
2023/07/30 09:46:57;;;;;;;6.88;2.55;;;;;;;23.65;92.41;100205.56;5018993;28;20030;-77
2023/07/30 09:49:34;;;;;;;7.00;2.42;;;;;;;23.53;91.21;100210.88;5021060;28;20097;-76
2023/07/30 09:52:02;;;;;;;6.13;2.60;;;;;;;23.01;93.40;100209.22;5029620;28;20412;-75
2023/07/30 09:54:29;;;;;;;6.07;2.15;;;;;;;23.06;94.94;100209.09;5021825;28;20030;-77
2023/07/30 09:56:55;;;;;;;5.25;2.00;;;;;;;23.19;95.25;100206.63;4996901;28;20038;-78
2023/07/30 09:59:21;;;;;;;7.47;2.60;;;23.10;93.60;;;22.52;95.24;100136.59;5024805;28;20084;-77
2023/07/30 10:01:49;;;;;;;7.57;2.38;;;23.50;92.60;;;22.64;98.18;100200.81;5023112;28;20034;-76
2023/07/30 10:04:19;;;;;;;8.07;2.40;;;23.00;93.40;;;22.30;100.00;100217.88;5039751;28;20055;-77
2023/07/30 10:07:03;;;;;;;5.50;2.40;;;22.80;94.90;;;22.05;100.00;100206.91;5021824;28;20033;-77
2023/07/30 10:09:38;;;;;;;7.25;2.53;;;22.50;95.10;;;22.57;100.00;100214.31;5019161;28;20439;-76
2023/07/30 10:12:05;;;;;;;6.20;2.45;;;22.70;96.90;;;21.77;100.00;100225.47;5020669;28;20465;-77